Time;durP1;ratioP1;P1;durP2;ratioP2;P2;SDS_P1;SDS_P2;PMS_P1;PMS_P2;Temp;Humidity;BMP_temperature;BMP_pressure;BME280_temperature;BME280_humidity;BME280_pressure;Samples;Min_cycle;Max_cycle;Signal;HPM_P1;HPM_P2
2023/07/04 00:01:46;;;;;;;6.22;1.40;;;19.10;63.90;;;;;;4964358;28;20637;-19
2023/07/04 00:04:13;;;;;;;6.00;1.60;;;19.10;64.10;;;;;;4966584;28;20034;-19
2023/07/04 00:06:39;;;;;;;3.17;1.20;;;19.00;64.40;;;;;;4959906;28;20023;-19
2023/07/04 00:09:07;;;;;;;4.30;1.60;;;19.00;64.50;;;;;;4967655;28;20034;-18
2023/07/04 00:11:33;;;;;;;4.97;1.42;;;19.00;64.60;;;;;;4957404;28;20468;-19
2023/07/04 00:13:59;;;;;;;3.53;1.30;;;18.90;64.60;;;;;;4945125;28;20033;-19
2023/07/04 00:16:25;;;;;;;4.37;1.13;;;18.90;64.70;;;;;;4966217;28;20429;-18
2023/07/04 00:18:50;;;;;;;3.67;1.30;;;18.90;65.00;;;;;;4963908;28;20299;-18
2023/07/04 00:21:17;;;;;;;3.53;1.30;;;18.90;65.00;;;;;;4988739;28;20604;-19
2023/07/04 00:23:45;;;;;;;4.47;1.33;;;18.90;65.20;;;;;;4955952;28;20053;-19
2023/07/04 00:26:15;;;;;;;2.47;1.20;;;18.90;65.20;;;;;;4969261;28;20613;-18
2023/07/04 00:28:42;;;;;;;3.72;1.55;;;18.90;65.20;;;;;;4939237;28;20031;-19
2023/07/04 00:31:09;;;;;;;4.70;1.50;;;18.90;65.30;;;;;;4969366;28;20019;-18
2023/07/04 00:33:35;;;;;;;4.68;1.38;;;18.90;65.50;;;;;;4964683;28;20114;-19
2023/07/04 00:36:09;;;;;;;4.43;1.40;;;18.90;65.40;;;;;;4969151;28;20392;-19
2023/07/04 00:38:36;;;;;;;3.50;1.20;;;18.90;66.00;;;;;;4961276;28;20110;-19
2023/07/04 00:41:14;;;;;;;5.00;1.67;;;18.90;65.60;;;;;;4968824;28;20626;-18
2023/07/04 00:44:13;;;;;;;4.72;1.13;;;18.80;66.40;;;;;;4958308;28;20031;-19
2023/07/04 00:47:15;;;;;;;5.78;1.42;;;18.80;66.40;;;;;;4945369;28;20061;-19
2023/07/04 00:49:48;;;;;;;5.22;1.40;;;18.80;66.60;;;;;;4963008;28;20067;-19
2023/07/04 00:52:23;;;;;;;4.13;1.10;;;18.70;65.90;;;;;;4967017;28;20068;-18
2023/07/04 00:54:53;;;;;;;3.95;1.10;;;18.60;66.10;;;;;;4961002;28;20175;-19
2023/07/04 00:57:25;;;;;;;4.25;1.30;;;18.60;65.80;;;;;;4984237;28;20124;-19
2023/07/04 00:59:58;;;;;;;4.68;1.27;;;18.60;66.10;;;;;;4954167;28;20403;-19
2023/07/04 01:02:34;;;;;;;4.93;1.55;;;18.50;65.90;;;;;;4950139;28;20042;-19
2023/07/04 01:05:03;;;;;;;4.80;1.37;;;18.50;66.10;;;;;;4967751;28;20147;-19
2023/07/04 01:07:29;;;;;;;5.85;1.40;;;18.50;66.10;;;;;;4969773;28;20038;-18
2023/07/04 01:10:10;;;;;;;3.63;1.25;;;18.40;66.30;;;;;;4960108;28;20764;-18
2023/07/04 01:12:36;;;;;;;3.83;1.23;;;18.40;67.70;;;;;;4967091;28;20084;-19
2023/07/04 01:15:02;;;;;;;4.40;1.60;;;18.30;66.70;;;;;;4974403;28;20123;-18
2023/07/04 01:17:29;;;;;;;6.43;1.63;;;18.30;66.80;;;;;;4946144;28;20028;-19
2023/07/04 01:19:56;;;;;;;7.20;1.40;;;18.30;67.30;;;;;;4965917;28;20026;-18
2023/07/04 01:22:51;;;;;;;4.17;1.30;;;18.30;67.00;;;;;;4967674;28;20117;-19
2023/07/04 01:25:32;;;;;;;4.13;1.35;;;18.20;68.20;;;;;;4941561;28;20119;-18
2023/07/04 01:28:02;;;;;;;4.28;1.33;;;18.20;68.30;;;;;;4965017;28;20038;-19
2023/07/04 01:30:38;;;;;;;4.28;1.30;;;18.20;67.20;;;;;;4955604;28;20030;-19
2023/07/04 01:33:05;;;;;;;5.85;1.63;;;18.10;68.00;;;;;;4940741;28;20586;-19
2023/07/04 01:35:33;;;;;;;3.93;1.40;;;18.10;67.70;;;;;;4971677;28;20093;-19
2023/07/04 01:37:59;;;;;;;4.35;1.50;;;18.10;67.70;;;;;;4965104;28;20050;-19
2023/07/04 01:40:25;;;;;;;4.18;1.15;;;18.00;67.80;;;;;;4966825;28;20023;-19
2023/07/04 01:42:51;;;;;;;4.40;1.17;;;18.00;67.90;;;;;;4975667;28;20370;-18
2023/07/04 01:45:18;;;;;;;3.83;1.03;;;18.00;68.20;;;;;;4957389;28;20031;-18
2023/07/04 01:47:44;;;;;;;6.43;1.60;;;18.00;68.30;;;;;;4943507;28;20026;-19
2023/07/04 01:50:11;;;;;;;4.50;1.42;;;17.90;68.50;;;;;;4967594;28;20031;-18
2023/07/04 01:52:38;;;;;;;4.95;1.38;;;17.90;68.50;;;;;;4981130;28;20125;-18
2023/07/04 01:55:04;;;;;;;4.78;1.20;;;17.90;68.40;;;;;;4971107;28;20027;-19
2023/07/04 01:57:30;;;;;;;5.90;1.47;;;17.90;68.60;;;;;;4954366;28;20037;-19
2023/07/04 01:59:56;;;;;;;5.15;1.05;;;17.80;68.80;;;;;;4957175;28;20223;-19
2023/07/04 02:02:21;;;;;;;5.97;1.43;;;17.80;68.60;;;;;;4967868;28;20030;-19
2023/07/04 02:04:47;;;;;;;3.80;1.25;;;17.80;68.90;;;;;;4940673;28;20303;-19
2023/07/04 02:07:13;;;;;;;4.97;1.30;;;17.80;69.00;;;;;;4982563;28;20030;-18
2023/07/04 02:09:38;;;;;;;4.23;1.30;;;17.80;69.10;;;;;;4966418;28;21146;-19
2023/07/04 02:12:05;;;;;;;3.85;1.35;;;17.80;69.30;;;;;;4962966;28;20039;-18
2023/07/04 02:14:31;;;;;;;5.13;1.30;;;17.80;69.60;;;;;;4952683;28;20125;-19
2023/07/04 02:16:56;;;;;;;4.88;1.23;;;17.80;69.50;;;;;;4975435;28;20031;-18
2023/07/04 02:19:22;;;;;;;4.25;1.30;;;17.80;69.80;;;;;;4944594;28;20390;-18
2023/07/04 02:21:48;;;;;;;3.70;1.40;;;17.80;69.60;;;;;;4965749;28;20062;-18
2023/07/04 02:24:14;;;;;;;5.35;1.35;;;17.70;69.60;;;;;;4984161;28;20034;-18
2023/07/04 02:26:39;;;;;;;4.13;1.50;;;17.70;69.80;;;;;;4959825;28;20117;-19
2023/07/04 02:29:06;;;;;;;4.90;1.20;;;17.70;69.90;;;;;;4965591;28;20023;-18
2023/07/04 02:31:32;;;;;;;6.00;1.40;;;17.70;70.00;;;;;;4973497;28;20049;-19
2023/07/04 02:33:57;;;;;;;3.88;1.38;;;17.70;70.00;;;;;;4959077;28;20093;-19
2023/07/04 02:36:26;;;;;;;6.47;1.13;;;17.60;70.20;;;;;;4969319;28;20525;-18
2023/07/04 02:38:52;;;;;;;5.03;1.17;;;17.60;70.70;;;;;;4965200;28;20200;-18
2023/07/04 02:41:18;;;;;;;5.13;1.30;;;17.60;70.50;;;;;;4967178;28;20106;-19
2023/07/04 02:43:43;;;;;;;3.87;1.17;;;17.60;70.70;;;;;;4950757;28;20282;-19
2023/07/04 02:46:09;;;;;;;3.63;1.23;;;17.60;70.70;;;;;;4972546;28;20039;-19
2023/07/04 02:48:35;;;;;;;4.53;1.50;;;17.70;70.90;;;;;;4968975;28;20080;-19
2023/07/04 02:51:02;;;;;;;5.35;1.30;;;17.70;71.20;;;;;;4945543;28;20030;-19
2023/07/04 02:53:28;;;;;;;4.93;1.30;;;17.70;71.20;;;;;;4969481;28;20044;-19
2023/07/04 02:55:54;;;;;;;3.83;1.10;;;17.70;71.20;;;;;;4965507;28;20683;-18
2023/07/04 02:58:21;;;;;;;4.57;1.25;;;17.70;71.30;;;;;;4970425;28;20433;-19
2023/07/04 03:00:48;;;;;;;7.17;1.33;;;17.70;71.30;;;;;;4956514;28;20602;-18
2023/07/04 03:03:14;;;;;;;4.28;1.17;;;17.70;71.40;;;;;;4962924;28;20814;-18
2023/07/04 03:05:40;;;;;;;4.43;1.40;;;17.70;71.30;;;;;;4945293;28;20646;-19
2023/07/04 03:08:07;;;;;;;4.53;1.40;;;17.60;71.20;;;;;;4971087;28;20074;-18
2023/07/04 03:10:33;;;;;;;5.60;1.30;;;17.70;71.20;;;;;;4969622;28;20043;-19
2023/07/04 03:12:59;;;;;;;5.97;1.80;;;17.60;71.30;;;;;;4967575;28;20384;-18
2023/07/04 03:15:25;;;;;;;5.28;1.45;;;17.60;72.30;;;;;;4960287;28;20031;-18
2023/07/04 03:17:54;;;;;;;5.72;1.33;;;17.60;71.80;;;;;;4961306;28;20023;-18
2023/07/04 03:20:20;;;;;;;4.40;1.30;;;17.60;71.80;;;;;;4980732;28;20030;-18
2023/07/04 03:22:45;;;;;;;6.78;1.63;;;17.60;71.80;;;;;;4944232;28;20203;-18
2023/07/04 03:25:12;;;;;;;6.15;1.45;;;17.50;71.70;;;;;;4971523;28;20038;-18
2023/07/04 03:27:39;;;;;;;5.80;1.40;;;17.50;71.80;;;;;;4969576;28;20122;-18
2023/07/04 03:30:07;;;;;;;4.20;1.30;;;17.50;72.20;;;;;;4962715;28;20398;-18
2023/07/04 03:32:33;;;;;;;6.32;1.45;;;17.50;72.30;;;;;;4960991;28;20034;-19
2023/07/04 03:35:01;;;;;;;6.75;1.50;;;17.40;72.20;;;;;;4965057;28;20078;-18
2023/07/04 03:37:34;;;;;;;5.10;1.60;;;17.40;72.30;;;;;;4962907;28;20035;-18
2023/07/04 03:40:06;;;;;;;4.57;1.50;;;17.40;73.10;;;;;;4987124;28;20030;-18
2023/07/04 03:42:33;;;;;;;6.50;1.27;;;17.40;72.70;;;;;;4971655;28;20101;-19
2023/07/04 03:44:58;;;;;;;4.97;1.48;;;17.30;72.50;;;;;;4960635;28;20038;-19
2023/07/04 03:47:24;;;;;;;5.90;1.73;;;17.30;72.70;;;;;;4974623;28;20038;-18
2023/07/04 03:49:50;;;;;;;8.50;1.73;;;17.30;72.70;;;;;;4957809;28;20657;-18
2023/07/04 03:52:16;;;;;;;7.30;1.70;;;17.30;72.90;;;;;;4970060;28;20097;-19
2023/07/04 03:54:42;;;;;;;5.23;1.40;;;17.20;72.90;;;;;;4946111;28;20074;-19
2023/07/04 03:57:08;;;;;;;4.70;1.45;;;17.20;72.90;;;;;;4972961;28;20054;-18
2023/07/04 03:59:35;;;;;;;3.90;1.25;;;17.20;73.10;;;;;;4969297;28;20026;-19
2023/07/04 04:02:01;;;;;;;4.53;1.50;;;17.20;73.20;;;;;;4961108;28;20043;-18
2023/07/04 04:04:27;;;;;;;4.60;1.33;;;17.20;73.40;;;;;;4970274;28;20030;-18
2023/07/04 04:06:56;;;;;;;6.22;1.35;;;17.20;73.50;;;;;;4952004;28;20042;-18
2023/07/04 04:09:22;;;;;;;5.50;1.60;;;17.10;73.50;;;;;;4963229;28;20038;-18
2023/07/04 04:11:49;;;;;;;4.28;1.23;;;17.20;73.60;;;;;;4965239;28;20081;-18
2023/07/04 04:14:15;;;;;;;4.85;1.27;;;17.10;73.60;;;;;;4972289;28;20764;-18
2023/07/04 04:16:40;;;;;;;5.43;1.30;;;17.20;73.60;;;;;;4950544;28;20038;-18
2023/07/04 04:19:06;;;;;;;6.45;1.33;;;17.10;73.70;;;;;;4968820;28;20143;-18
2023/07/04 04:21:32;;;;;;;6.70;1.40;;;17.10;74.50;;;;;;4957625;28;20117;-19
2023/07/04 04:23:58;;;;;;;6.22;1.27;;;17.10;74.00;;;;;;4970040;28;20026;-19
2023/07/04 04:26:24;;;;;;;4.63;1.30;;;17.10;74.00;;;;;;4947410;28;20616;-18
2023/07/04 04:28:50;;;;;;;4.22;1.23;;;17.10;74.10;;;;;;4967255;28;20199;-18
2023/07/04 04:31:17;;;;;;;5.53;1.42;;;17.10;74.20;;;;;;4969402;28;20481;-18
2023/07/04 04:33:42;;;;;;;5.00;1.42;;;17.20;74.40;;;;;;4961102;28;20038;-18
2023/07/04 04:36:08;;;;;;;4.83;1.20;;;17.10;74.30;;;;;;4964062;28;20405;-18
2023/07/04 04:38:36;;;;;;;4.55;1.60;;;17.20;74.40;;;;;;4974668;28;20046;-19
2023/07/04 04:41:09;;;;;;;5.13;1.23;;;17.20;74.60;;;;;;4950265;28;20397;-18
2023/07/04 04:43:34;;;;;;;4.33;1.53;;;17.20;75.30;;;;;;4966334;28;20544;-18
2023/07/04 04:46:03;;;;;;;7.03;1.50;;;17.20;74.50;;;;;;4972628;28;20030;-18
2023/07/04 04:48:35;;;;;;;3.88;1.50;;;17.20;75.00;;;;;;4963149;28;20080;-19
2023/07/04 04:51:10;;;;;;;5.83;1.27;;;17.20;75.10;;;;;;4971120;28;20070;-18
2023/07/04 04:53:37;;;;;;;4.95;1.40;;;17.20;75.50;;;;;;4972924;28;20042;-18
2023/07/04 04:56:03;;;;;;;5.25;1.40;;;17.20;74.70;;;;;;4938568;28;20026;-18
2023/07/04 04:58:29;;;;;;;4.95;1.42;;;17.20;75.10;;;;;;4970318;28;20037;-19
2023/07/04 05:00:55;;;;;;;4.60;1.30;;;17.20;74.90;;;;;;4958793;28;20042;-18
2023/07/04 05:03:21;;;;;;;5.43;1.60;;;17.20;75.00;;;;;;4969284;28;20045;-19
2023/07/04 05:05:47;;;;;;;4.95;1.35;;;17.20;75.10;;;;;;4949886;28;20325;-18
2023/07/04 05:08:13;;;;;;;6.80;1.48;;;17.20;75.10;;;;;;4967201;28;20054;-19
2023/07/04 05:10:39;;;;;;;4.18;1.42;;;17.20;75.10;;;;;;4958753;28;20125;-18
2023/07/04 05:13:04;;;;;;;5.80;1.80;;;17.20;75.20;;;;;;4949557;28;20046;-18
2023/07/04 05:15:30;;;;;;;6.45;1.48;;;17.30;75.40;;;;;;4969034;28;20065;-18
2023/07/04 05:17:57;;;;;;;5.37;1.43;;;17.30;75.40;;;;;;4968796;28;20019;-19
2023/07/04 05:20:24;;;;;;;6.95;1.60;;;17.30;75.60;;;;;;4959890;28;20030;-19
2023/07/04 05:22:56;;;;;;;5.97;1.63;;;17.30;75.70;;;;;;4969176;28;20337;-18
2023/07/04 05:25:22;;;;;;;5.80;1.27;;;17.30;75.70;;;;;;4965423;28;20022;-18
2023/07/04 05:27:50;;;;;;;6.10;1.50;;;17.40;75.90;;;;;;4945049;28;20239;-18
2023/07/04 05:30:16;;;;;;;4.57;1.30;;;17.40;76.20;;;;;;4971704;28;20027;-19
2023/07/04 05:32:42;;;;;;;4.95;1.58;;;17.40;75.80;;;;;;4970592;28;20022;-18
2023/07/04 05:35:08;;;;;;;5.75;1.38;;;17.40;75.90;;;;;;4970874;28;20430;-18
2023/07/04 05:37:34;;;;;;;6.50;1.70;;;17.50;76.00;;;;;;4948961;28;20454;-18
2023/07/04 05:40:00;;;;;;;6.05;1.60;;;17.50;75.90;;;;;;4967995;28;20595;-18
2023/07/04 05:42:27;;;;;;;4.55;1.17;;;17.50;76.10;;;;;;4951349;28;20151;-19
2023/07/04 05:44:53;;;;;;;5.90;1.53;;;17.60;76.10;;;;;;4965060;28;20366;-18
2023/07/04 05:47:19;;;;;;;5.78;1.65;;;17.60;76.00;;;;;;4968869;28;20062;-19
2023/07/04 05:49:45;;;;;;;4.63;1.52;;;17.60;75.90;;;;;;4967571;28;20022;-19
2023/07/04 05:52:11;;;;;;;6.43;1.57;;;17.60;76.00;;;;;;4978540;28;20046;-19
2023/07/04 05:54:36;;;;;;;5.28;1.45;;;17.60;76.00;;;;;;4946526;28;20785;-19
2023/07/04 05:57:02;;;;;;;4.13;1.40;;;17.60;76.10;;;;;;4975698;28;20097;-18
2023/07/04 05:59:28;;;;;;;5.45;1.33;;;17.70;76.10;;;;;;4943231;28;20034;-18
2023/07/04 06:01:54;;;;;;;7.33;1.63;;;17.80;76.20;;;;;;4968495;28;20047;-18
2023/07/04 06:04:20;;;;;;;5.63;1.60;;;17.80;76.10;;;;;;4969760;28;20487;-18
2023/07/04 06:06:53;;;;;;;6.07;1.42;;;17.90;76.30;;;;;;4965794;28;20582;-18
2023/07/04 06:09:20;;;;;;;4.50;1.55;;;17.90;77.20;;;;;;4958331;28;21302;-18
2023/07/04 06:11:48;;;;;;;7.93;1.40;;;18.00;76.20;;;;;;4976354;28;20065;-18
2023/07/04 06:14:26;;;;;;;4.47;1.40;;;18.00;76.10;;;;;;4941983;28;20460;-18
2023/07/04 06:16:52;;;;;;;3.35;1.40;;;18.10;76.40;;;;;;4966746;28;20480;-18
2023/07/04 06:19:19;;;;;;;4.18;1.27;;;18.10;76.00;;;;;;4965890;28;20369;-18
2023/07/04 06:21:45;;;;;;;5.43;1.60;;;18.20;76.00;;;;;;4967036;28;20085;-18
2023/07/04 06:24:13;;;;;;;5.33;1.30;;;18.20;76.00;;;;;;4941486;28;20042;-19
2023/07/04 06:26:39;;;;;;;5.85;1.42;;;18.30;76.00;;;;;;4962738;28;20573;-19
2023/07/04 06:29:05;;;;;;;5.60;1.67;;;18.30;75.90;;;;;;4949891;28;20466;-19
2023/07/04 06:31:31;;;;;;;4.77;1.40;;;18.40;75.90;;;;;;4962104;28;20046;-19
2023/07/04 06:33:57;;;;;;;5.43;1.33;;;18.50;75.90;;;;;;4967551;28;20029;-19
2023/07/04 06:36:23;;;;;;;6.30;1.30;;;18.50;75.80;;;;;;4976863;28;20185;-19
2023/07/04 06:38:49;;;;;;;4.05;1.30;;;18.60;75.70;;;;;;4960958;28;20022;-19
2023/07/04 06:41:16;;;;;;;5.30;1.40;;;18.60;75.70;;;;;;4957289;28;20714;-19
2023/07/04 06:43:44;;;;;;;4.18;1.33;;;18.70;75.80;;;;;;4976390;28;20030;-19
2023/07/04 06:46:16;;;;;;;4.05;1.30;;;18.70;75.60;;;;;;4956299;28;20053;-19
2023/07/04 06:48:41;;;;;;;4.57;1.35;;;18.80;75.50;;;;;;4972187;28;20402;-18
2023/07/04 06:51:12;;;;;;;4.30;1.40;;;18.90;75.30;;;;;;4971175;28;20022;-19
2023/07/04 06:53:38;;;;;;;5.55;1.52;;;19.00;75.40;;;;;;4953532;28;20038;-19
2023/07/04 06:56:09;;;;;;;5.97;1.55;;;19.00;75.30;;;;;;4963149;28;20046;-19
2023/07/04 06:58:37;;;;;;;3.22;1.10;;;19.10;75.30;;;;;;4941345;28;20092;-18
2023/07/04 07:01:03;;;;;;;3.40;1.30;;;19.20;75.30;;;;;;4946137;28;20090;-18
2023/07/04 07:03:30;;;;;;;3.33;1.27;;;19.30;75.40;;;;;;4971117;28;20617;-19
2023/07/04 07:05:56;;;;;;;5.85;1.48;;;19.40;75.30;;;;;;4965704;28;20452;-19
2023/07/04 07:08:22;;;;;;;5.50;1.27;;;19.50;75.10;;;;;;4963481;28;20283;-19
2023/07/04 07:10:59;;;;;;;3.83;1.30;;;19.50;74.90;;;;;;4958011;28;20129;-19
2023/07/04 07:13:25;;;;;;;4.90;1.27;;;19.60;74.60;;;;;;4966128;28;20035;-19
2023/07/04 07:15:51;;;;;;;3.65;1.30;;;19.70;74.60;;;;;;4962774;28;20034;-19
2023/07/04 07:18:17;;;;;;;3.83;1.67;;;19.80;74.50;;;;;;4972088;28;20035;-19
2023/07/04 07:20:43;;;;;;;3.23;1.23;;;19.80;74.50;;;;;;4966163;28;20023;-18
2023/07/04 07:23:10;;;;;;;4.43;1.53;;;19.90;74.50;;;;;;4965411;28;20274;-20
2023/07/04 07:25:37;;;;;;;3.85;1.30;;;19.90;74.70;;;;;;4954021;28;21571;-19
2023/07/04 07:28:03;;;;;;;4.88;1.60;;;20.00;74.80;;;;;;4972786;28;20033;-19
2023/07/04 07:30:29;;;;;;;5.07;1.63;;;20.20;75.00;;;;;;4934368;28;20038;-19
2023/07/04 07:32:54;;;;;;;5.83;1.70;;;20.30;75.00;;;;;;4969541;28;20023;-19
2023/07/04 07:35:20;;;;;;;5.60;1.67;;;20.40;74.80;;;;;;4972061;28;20118;-19
2023/07/04 07:37:46;;;;;;;4.47;1.40;;;20.50;74.40;;;;;;4971573;28;20145;-19
2023/07/04 07:40:12;;;;;;;5.18;1.67;;;20.60;74.00;;;;;;4959174;28;20051;-19
2023/07/04 07:42:38;;;;;;;5.70;1.30;;;20.70;73.60;;;;;;4959191;28;20657;-18
2023/07/04 07:45:04;;;;;;;5.45;1.50;;;20.70;73.50;;;;;;4952127;28;20046;-19
2023/07/04 07:47:30;;;;;;;5.97;1.50;;;20.80;73.20;;;;;;4946133;28;20105;-19
2023/07/04 07:49:56;;;;;;;2.80;1.20;;;20.80;73.00;;;;;;4973203;28;20030;-19
2023/07/04 07:52:22;;;;;;;5.10;1.50;;;20.90;73.10;;;;;;4962234;28;20493;-19
2023/07/04 07:54:48;;;;;;;3.92;1.35;;;20.90;73.20;;;;;;4961708;28;20019;-19
2023/07/04 07:57:14;;;;;;;3.77;1.30;;;21.10;73.60;;;;;;4965953;28;20095;-19
2023/07/04 07:59:40;;;;;;;4.65;1.42;;;21.20;73.90;;;;;;4963281;28;20034;-19
2023/07/04 08:02:12;;;;;;;5.07;1.60;;;21.30;74.00;;;;;;4934192;28;20125;-19
2023/07/04 08:04:38;;;;;;;4.07;1.37;;;21.60;74.00;;;;;;4968271;28;20046;-18
2023/07/04 08:07:07;;;;;;;3.28;1.35;;;21.80;74.30;;;;;;4965017;28;20038;-19
2023/07/04 08:09:33;;;;;;;3.28;1.35;;;22.00;73.30;;;;;;4968413;28;20029;-18
2023/07/04 08:11:58;;;;;;;4.93;1.60;;;22.20;73.40;;;;;;4968567;28;20509;-19
2023/07/04 08:14:25;;;;;;;4.43;1.50;;;22.40;73.70;;;;;;4954493;28;20597;-19
2023/07/04 08:16:53;;;;;;;5.18;1.40;;;22.70;73.60;;;;;;4961755;28;20039;-19
2023/07/04 08:19:21;;;;;;;4.95;1.40;;;22.90;72.80;;;;;;4946598;28;20027;-19
2023/07/04 08:21:47;;;;;;;4.13;1.30;;;23.20;73.10;;;;;;4969648;28;20452;-18
2023/07/04 08:24:15;;;;;;;5.22;1.58;;;23.50;73.60;;;;;;4962106;28;20077;-19
2023/07/04 08:26:44;;;;;;;3.60;1.30;;;23.80;73.00;;;;;;4964602;28;20397;-19
2023/07/04 08:29:10;;;;;;;4.25;1.30;;;24.00;70.60;;;;;;4967942;28;20125;-19
2023/07/04 08:31:36;;;;;;;5.63;1.55;;;24.20;70.10;;;;;;4960332;28;20149;-18
2023/07/04 08:34:05;;;;;;;4.13;1.43;;;24.40;69.70;;;;;;4943524;28;20034;-19
2023/07/04 08:36:31;;;;;;;2.75;1.40;;;24.50;70.50;;;;;;4967569;28;20027;-20
2023/07/04 08:38:57;;;;;;;3.53;1.35;;;24.80;70.40;;;;;;4960368;28;20030;-19
2023/07/04 08:41:59;;;;;;;2.70;1.20;;;25.00;70.00;;;;;;4959758;28;20038;-19
2023/07/04 08:44:35;;;;;;;3.80;1.40;;;25.40;67.40;;;;;;4973590;28;20647;-19
2023/07/04 08:47:01;;;;;;;3.85;1.50;;;25.60;68.00;;;;;;4959015;28;20417;-19
2023/07/04 08:49:45;;;;;;;4.50;1.60;;;25.90;68.10;;;;;;4965291;28;20404;-19
2023/07/04 08:52:16;;;;;;;3.85;1.25;;;26.10;66.20;;;;;;4944091;28;20030;-19
2023/07/04 08:54:42;;;;;;;4.03;1.40;;;26.30;66.60;;;;;;4965336;28;20030;-19
2023/07/04 08:57:34;;;;;;;4.33;1.53;;;26.60;66.30;;;;;;4957624;28;20043;-19
2023/07/04 09:00:08;;;;;;;5.05;1.60;;;26.70;63.10;;;;;;4951531;28;20122;-19
2023/07/04 09:03:25;;;;;;;3.65;1.42;;;26.90;64.10;;;;;;4960906;28;20564;-19
2023/07/04 09:06:11;;;;;;;4.63;1.58;;;27.10;63.40;;;;;;4955092;28;20038;-19
2023/07/04 09:08:54;;;;;;;6.27;1.60;;;27.30;63.10;;;;;;4971435;28;20058;-19
2023/07/04 09:11:20;;;;;;;3.63;1.40;;;27.40;62.80;;;;;;4961762;28;20277;-19
2023/07/04 09:13:53;;;;;;;3.88;1.67;;;27.50;63.10;;;;;;4965147;28;20030;-19
2023/07/04 09:16:27;;;;;;;3.63;1.27;;;27.50;60.10;;;;;;4947767;28;20130;-18
2023/07/04 09:19:00;;;;;;;3.65;1.40;;;27.50;60.00;;;;;;4960537;28;20026;-19
2023/07/04 09:21:28;;;;;;;4.00;1.40;;;27.40;60.00;;;;;;4946220;28;20428;-19
2023/07/04 09:24:04;;;;;;;3.65;1.50;;;27.50;60.10;;;;;;4967311;28;20109;-20
2023/07/04 09:26:44;;;;;;;3.53;1.42;;;27.50;59.50;;;;;;4963279;28;20508;-19
2023/07/04 09:29:12;;;;;;;3.88;1.50;;;27.50;59.40;;;;;;4956563;28;20042;-19
2023/07/04 09:31:41;;;;;;;4.18;1.58;;;27.60;60.30;;;;;;4946698;28;20031;-19
2023/07/04 09:34:15;;;;;;;3.50;1.50;;;27.70;59.90;;;;;;4957467;28;20022;-19
2023/07/04 09:36:41;;;;;;;3.80;1.50;;;27.80;59.50;;;;;;4968438;28;20030;-19
2023/07/04 09:39:08;;;;;;;3.85;1.50;;;28.00;60.50;;;;;;4942543;28;20444;-19
2023/07/04 09:41:36;;;;;;;4.95;1.40;;;28.10;59.00;;;;;;4975056;28;20031;-19
2023/07/04 09:44:19;;;;;;;3.77;1.40;;;28.20;58.30;;;;;;4960571;28;20042;-19
2023/07/04 09:46:52;;;;;;;4.20;1.50;;;28.30;57.60;;;;;;4954568;28;20073;-19
2023/07/04 09:49:37;;;;;;;4.28;1.55;;;28.30;57.10;;;;;;4960848;28;20678;-19
2023/07/04 09:52:18;;;;;;;4.15;1.50;;;28.30;56.80;;;;;;4957857;28;20030;-19
2023/07/04 09:54:44;;;;;;;4.72;1.70;;;28.30;56.00;;;;;;4943687;28;20038;-19
2023/07/04 09:57:24;;;;;;;3.60;1.50;;;28.30;56.70;;;;;;4965425;28;20137;-19
2023/07/04 09:59:51;;;;;;;3.67;1.40;;;28.30;55.20;;;;;;4972037;28;20031;-19
2023/07/04 10:02:35;;;;;;;3.60;1.58;;;28.20;55.70;;;;;;4931661;28;20372;-19
2023/07/04 10:05:02;;;;;;;4.55;1.55;;;28.20;54.50;;;;;;4966812;28;20037;-19
2023/07/04 10:07:28;;;;;;;4.03;1.42;;;28.10;55.70;;;;;;4961781;28;20168;-19
2023/07/04 10:09:57;;;;;;;3.87;1.70;;;28.10;55.90;;;;;;4946848;28;20499;-19
2023/07/04 10:12:24;;;;;;;2.97;1.40;;;28.10;55.70;;;;;;4960560;28;20249;-19
2023/07/04 10:14:54;;;;;;;4.53;1.50;;;28.10;55.50;;;;;;4969967;28;20470;-19
2023/07/04 10:17:31;;;;;;;4.35;1.50;;;28.10;55.00;;;;;;4944346;28;20034;-19
2023/07/04 10:20:04;;;;;;;3.37;1.40;;;28.10;55.10;;;;;;4960094;28;20026;-19
2023/07/04 10:22:35;;;;;;;4.05;1.50;;;28.20;56.00;;;;;;4960075;28;20027;-19
2023/07/04 10:25:02;;;;;;;4.18;1.50;;;28.20;56.00;;;;;;4951867;28;20042;-19
2023/07/04 10:27:36;;;;;;;2.53;1.33;;;28.30;55.50;;;;;;4965699;28;20023;-19
2023/07/04 10:30:05;;;;;;;3.95;1.50;;;28.30;54.00;;;;;;4968247;28;20038;-20
2023/07/04 10:32:39;;;;;;;3.93;1.50;;;28.30;54.20;;;;;;4947926;28;20117;-18
2023/07/04 10:35:10;;;;;;;4.65;1.50;;;28.20;54.00;;;;;;4959874;28;20059;-19
2023/07/04 10:37:37;;;;;;;3.97;1.70;;;28.20;53.60;;;;;;4971091;28;20029;-20
2023/07/04 10:40:08;;;;;;;3.88;1.52;;;28.10;53.60;;;;;;4949613;28;20512;-19
2023/07/04 10:42:55;;;;;;;5.07;2.00;;;27.90;53.10;;;;;;4971050;28;20163;-19
2023/07/04 10:45:23;;;;;;;3.30;1.87;;;27.80;53.00;;;;;;4971007;28;20354;-19
2023/07/04 10:47:53;;;;;;;5.32;1.80;;;27.80;54.20;;;;;;4963504;28;20026;-19
2023/07/04 10:50:27;;;;;;;3.33;1.80;;;27.80;54.50;;;;;;4958660;28;20607;-19
2023/07/04 10:52:53;;;;;;;3.80;1.90;;;27.90;54.50;;;;;;4970016;28;20401;-20
2023/07/04 10:56:09;;;;;;;5.18;2.00;;;28.10;54.90;;;;;;4936616;28;20030;-19
2023/07/04 10:58:40;;;;;;;3.73;1.97;;;28.20;53.70;;;;;;4970466;28;20058;-19
2023/07/04 11:01:31;;;;;;;6.32;1.80;;;28.20;52.80;;;;;;4969515;28;20264;-19
2023/07/04 11:04:01;;;;;;;4.07;1.98;;;28.00;52.40;;;;;;4953020;28;20217;-19
2023/07/04 11:06:39;;;;;;;3.35;1.75;;;28.00;53.60;;;;;;4966597;28;20027;-19
2023/07/04 11:09:09;;;;;;;5.43;1.90;;;28.00;53.60;;;;;;4960211;28;20113;-19
2023/07/04 11:11:37;;;;;;;3.30;1.90;;;28.10;54.40;;;;;;4962572;28;20161;-19
2023/07/04 11:14:07;;;;;;;3.72;1.80;;;28.20;54.50;;;;;;4971233;28;20144;-19
2023/07/04 11:16:40;;;;;;;4.55;1.77;;;28.30;54.80;;;;;;4986314;28;20031;-19
2023/07/04 11:19:25;;;;;;;4.10;1.80;;;28.60;55.00;;;;;;4946947;28;20453;-19
2023/07/04 11:22:00;;;;;;;5.45;2.35;;;28.80;54.40;;;;;;4962090;28;20331;-20
2023/07/04 11:24:33;;;;;;;4.27;2.17;;;29.10;53.60;;;;;;4963169;28;20651;-19
2023/07/04 11:27:01;;;;;;;4.13;2.10;;;29.20;53.90;;;;;;4920681;28;21368;-19
2023/07/04 11:29:44;;;;;;;4.65;2.00;;;29.40;53.80;;;;;;4962032;28;20043;-19
2023/07/04 11:32:13;;;;;;;5.60;2.40;;;29.50;51.80;;;;;;4971309;28;20085;-19
2023/07/04 11:35:06;;;;;;;6.45;2.40;;;29.40;51.60;;;;;;4954791;28;20030;-19
2023/07/04 11:38:01;;;;;;;4.30;2.17;;;29.30;50.60;;;;;;4965289;28;20039;-19
2023/07/04 11:40:41;;;;;;;6.10;2.50;;;29.30;51.30;;;;;;4962425;28;20026;-19
2023/07/04 11:43:27;;;;;;;3.80;2.13;;;29.30;51.60;;;;;;4961914;28;20853;-19
2023/07/04 11:45:55;;;;;;;4.60;2.15;;;29.50;50.30;;;;;;4969796;28;20094;-19
2023/07/04 11:48:25;;;;;;;3.80;2.40;;;29.60;51.70;;;;;;4973514;28;20038;-19
2023/07/04 11:50:54;;;;;;;5.10;2.30;;;29.70;51.20;;;;;;4967062;28;20035;-19
2023/07/04 11:53:27;;;;;;;4.55;2.50;;;29.70;50.80;;;;;;4949237;28;20074;-19
2023/07/04 11:56:19;;;;;;;5.40;2.40;;;29.60;49.50;;;;;;4960992;28;20182;-19
2023/07/04 11:58:46;;;;;;;4.07;2.08;;;29.50;49.20;;;;;;4946318;28;20054;-19
2023/07/04 12:01:14;;;;;;;5.05;2.50;;;29.30;49.80;;;;;;4970398;28;20065;-19
2023/07/04 12:04:04;;;;;;;4.83;2.40;;;29.30;50.00;;;;;;4964549;28;20532;-19
2023/07/04 12:06:56;;;;;;;5.65;2.33;;;29.30;49.30;;;;;;4969099;28;20046;-19
2023/07/04 12:09:33;;;;;;;4.10;2.58;;;29.20;49.40;;;;;;4960304;28;20030;-19
2023/07/04 12:12:01;;;;;;;3.25;2.33;;;29.20;49.80;;;;;;4959783;28;20458;-19
2023/07/04 12:14:28;;;;;;;4.25;2.50;;;29.20;50.30;;;;;;4943183;28;20045;-20
2023/07/04 12:16:58;;;;;;;5.77;2.60;;;29.30;50.20;;;;;;4970981;28;20027;-19
2023/07/04 12:19:23;;;;;;;5.25;2.42;;;29.40;49.70;;;;;;4952590;28;20034;-18
2023/07/04 12:21:51;;;;;;;4.50;2.50;;;29.40;50.50;;;;;;4971278;28;20030;-19
2023/07/04 12:24:22;;;;;;;4.10;2.67;;;29.60;50.40;;;;;;4961765;28;20319;-19
2023/07/04 12:26:59;;;;;;;5.27;2.57;;;29.70;49.70;;;;;;4976695;28;20022;-18
2023/07/04 12:29:27;;;;;;;4.38;2.70;;;29.90;48.30;;;;;;4944278;28;20039;-19
2023/07/04 12:32:08;;;;;;;4.53;2.67;;;29.90;49.00;;;;;;4985773;28;20050;-19
2023/07/04 12:34:35;;;;;;;4.28;2.40;;;29.90;47.50;;;;;;4972903;28;20658;-19
2023/07/04 12:37:05;;;;;;;5.07;2.67;;;29.90;48.20;;;;;;4965850;28;20075;-19
2023/07/04 12:39:42;;;;;;;3.83;2.30;;;29.80;48.30;;;;;;4965021;28;20474;-19
2023/07/04 12:42:13;;;;;;;4.47;2.40;;;29.70;47.80;;;;;;4946306;28;20030;-19
2023/07/04 12:44:39;;;;;;;4.63;2.20;;;29.60;47.70;;;;;;4975540;28;20354;-19
2023/07/04 12:47:18;;;;;;;5.72;2.45;;;29.60;47.70;;;;;;4938841;28;20777;-19
2023/07/04 12:49:45;;;;;;;4.20;2.40;;;29.40;46.80;;;;;;4969925;28;20975;-19
2023/07/04 12:52:13;;;;;;;5.78;2.53;;;29.30;47.60;;;;;;4952518;28;20041;-19
2023/07/04 12:54:40;;;;;;;3.92;2.50;;;29.20;47.90;;;;;;4970072;28;20361;-19
2023/07/04 12:57:14;;;;;;;4.38;2.38;;;29.10;47.80;;;;;;4962644;28;20588;-20
2023/07/04 12:59:40;;;;;;;3.80;2.20;;;29.10;47.80;;;;;;4962584;28;20033;-20
2023/07/04 13:02:24;;;;;;;5.43;2.30;;;29.10;48.10;;;;;;4948666;28;20043;-19